Aviation Digital Data Service (ADDS)

Output produced by METARs form (0156 UTC 27 March 2015)
found at http://aviationweather.gov/adds/metars/
 
KARA 262346Z 2700/2724 VRB06KT P6SM VCSH OVC025 
     FM270200 34012G18KT P6SM OVC020 
     FM270800 35010KT P6SM OVC040 
     FM271000 35006KT P6SM SKC 
     FM271800 32010G15KT P6SM SKC